CEN5 weather

Cold Lake Regional Airport
Cold Lake, Alberta, Canada

Public forecast

Using degrees Celsius for public forecast. Weather courtesy of forecast.io.

Closest aviation weather report (METAR) to Cold Lake Regional Airport

Closest report is CFB Cold Lake, 4.4 nm (8.1 km) S. Retrieved 2019/10/23 06:00 UTC (57 minutes ago):

CYOD 230600Z 14006KT 2 1/2SM -SN BR SCT004 OVC021 01/00 A2994 RMK SF3SC5 SLP165

Closest aviation forecast (TAF) to Cold Lake Regional Airport

Closest forecast is CFB Cold Lake, 4.4 nm (8.1 km) S. Retrieved 2019/10/23 06:35 UTC (22 minutes ago):

TAF CYOD 230530Z 2306/2406 11006KT 6SM -SN FEW004 SCT012 OVC025 TEMPO 2306/2312 2SM -SN BR SCT004 BKN012 OVC020 FM231200 VRB03KT 2SM -SN SCT004 OVC012 FM231500 VRB03KT 3SM -RASN BR OVC015 FM231800 31008KT 6SM -RASN BR OVC020 FM232300 31008KT P6SM OVC025 BECMG 2404/2406 SCT025 RMK NXT FCST BY 231200Z